sensor_id;sensor_type;location;lat;lon;timestamp;pressure;altitude;pressure_sealevel;temperature;humidity
70555;BME280;58104;52.744;15.242;2023-02-17T00:01:08;101138.16;;;19.63;40.84
70555;BME280;58104;52.744;15.242;2023-02-17T00:03:27;101139.87;;;19.59;41.04
70555;BME280;58104;52.744;15.242;2023-02-17T00:05:53;101143.80;;;19.66;41.09
70555;BME280;58104;52.744;15.242;2023-02-17T00:08:18;101142.98;;;19.60;41.11
70555;BME280;58104;52.744;15.242;2023-02-17T00:10:44;101141.61;;;19.54;41.16
70555;BME280;58104;52.744;15.242;2023-02-17T00:13:09;101140.22;;;19.49;41.36
70555;BME280;58104;52.744;15.242;2023-02-17T00:15:37;101135.95;;;19.44;41.48
70555;BME280;58104;52.744;15.242;2023-02-17T00:18:00;101134.90;;;19.48;41.61
70555;BME280;58104;52.744;15.242;2023-02-17T00:20:27;101130.91;;;19.48;41.61
70555;BME280;58104;52.744;15.242;2023-02-17T00:22:50;101137.26;;;19.50;41.85
70555;BME280;58104;52.744;15.242;2023-02-17T00:25:16;101133.62;;;19.53;41.81
70555;BME280;58104;52.744;15.242;2023-02-17T00:27:42;101130.37;;;19.49;41.91
70555;BME280;58104;52.744;15.242;2023-02-17T00:30:07;101128.30;;;19.52;42.05
70555;BME280;58104;52.744;15.242;2023-02-17T00:32:32;101129.36;;;19.44;42.08
70555;BME280;58104;52.744;15.242;2023-02-17T00:34:57;101128.06;;;19.44;42.25
70555;BME280;58104;52.744;15.242;2023-02-17T00:37:23;101128.72;;;19.52;42.32
70555;BME280;58104;52.744;15.242;2023-02-17T00:39:48;101123.62;;;19.42;42.44
70555;BME280;58104;52.744;15.242;2023-02-17T00:42:14;101123.84;;;19.48;42.56
70555;BME280;58104;52.744;15.242;2023-02-17T00:44:39;101124.68;;;19.36;42.73
70555;BME280;58104;52.744;15.242;2023-02-17T00:47:05;101117.92;;;19.24;42.95
70555;BME280;58104;52.744;15.242;2023-02-17T00:49:30;101112.69;;;19.25;43.05
70555;BME280;58104;52.744;15.242;2023-02-17T00:51:58;101105.95;;;19.19;43.10
70555;BME280;58104;52.744;15.242;2023-02-17T00:54:21;101101.53;;;19.26;43.30
70555;BME280;58104;52.744;15.242;2023-02-17T00:56:46;101096.39;;;19.19;43.26
70555;BME280;58104;52.744;15.242;2023-02-17T00:59:12;101099.35;;;19.17;43.36
70555;BME280;58104;52.744;15.242;2023-02-17T01:01:37;101097.92;;;19.15;43.58
70555;BME280;58104;52.744;15.242;2023-02-17T01:04:03;101096.08;;;19.25;43.67
70555;BME280;58104;52.744;15.242;2023-02-17T01:06:30;101093.63;;;19.11;43.82
70555;BME280;58104;52.744;15.242;2023-02-17T01:08:53;101088.38;;;19.13;43.96
70555;BME280;58104;52.744;15.242;2023-02-17T01:11:20;101087.41;;;19.28;43.92
70555;BME280;58104;52.744;15.242;2023-02-17T01:13:44;101084.52;;;19.12;44.01
70555;BME280;58104;52.744;15.242;2023-02-17T01:16:16;101079.55;;;19.16;43.96
70555;BME280;58104;52.744;15.242;2023-02-17T01:18:36;101073.86;;;19.13;44.11
70555;BME280;58104;52.744;15.242;2023-02-17T01:21:01;101075.97;;;19.12;44.15
70555;BME280;58104;52.744;15.242;2023-02-17T01:23:26;101076.91;;;19.19;44.12
70555;BME280;58104;52.744;15.242;2023-02-17T01:25:51;101069.25;;;19.16;44.29
70555;BME280;58104;52.744;15.242;2023-02-17T01:28:19;101063.98;;;19.05;44.29
70555;BME280;58104;52.744;15.242;2023-02-17T01:30:42;101061.67;;;19.17;44.22
70555;BME280;58104;52.744;15.242;2023-02-17T01:33:08;101058.09;;;19.27;44.12
70555;BME280;58104;52.744;15.242;2023-02-17T01:35:33;101057.63;;;19.25;44.31
70555;BME280;58104;52.744;15.242;2023-02-17T01:37:59;101055.90;;;19.25;44.36
70555;BME280;58104;52.744;15.242;2023-02-17T01:40:24;101055.26;;;19.21;44.41
70555;BME280;58104;52.744;15.242;2023-02-17T01:42:49;101051.96;;;19.28;44.33
70555;BME280;58104;52.744;15.242;2023-02-17T01:47:40;101045.87;;;19.28;44.49
70555;BME280;58104;52.744;15.242;2023-02-17T01:50:07;101047.03;;;19.35;44.41
70555;BME280;58104;52.744;15.242;2023-02-17T01:54:59;101038.99;;;19.23;44.66
70555;BME280;58104;52.744;15.242;2023-02-17T01:57:24;101041.84;;;19.34;44.87
70555;BME280;58104;52.744;15.242;2023-02-17T01:59:48;101038.52;;;19.51;44.72
70555;BME280;58104;52.744;15.242;2023-02-17T02:02:13;101032.08;;;19.44;44.81
70555;BME280;58104;52.744;15.242;2023-02-17T02:04:40;101032.41;;;19.43;44.84
70555;BME280;58104;52.744;15.242;2023-02-17T02:07:05;101033.01;;;19.46;44.70
70555;BME280;58104;52.744;15.242;2023-02-17T02:09:34;101032.89;;;19.45;44.76
70555;BME280;58104;52.744;15.242;2023-02-17T02:11:54;101030.45;;;19.37;44.75
70555;BME280;58104;52.744;15.242;2023-02-17T02:14:21;101025.53;;;19.40;44.82
70555;BME280;58104;52.744;15.242;2023-02-17T02:16:52;101015.24;;;19.40;44.73
70555;BME280;58104;52.744;15.242;2023-02-17T02:21:49;101011.04;;;19.41;44.66
70555;BME280;58104;52.744;15.242;2023-02-17T02:29:05;100995.01;;;19.46;44.64
70555;BME280;58104;52.744;15.242;2023-02-17T02:31:28;100991.59;;;19.52;44.58
70555;BME280;58104;52.744;15.242;2023-02-17T02:33:49;100987.70;;;19.50;44.70
70555;BME280;58104;52.744;15.242;2023-02-17T02:36:11;100983.30;;;19.51;44.65
70555;BME280;58104;52.744;15.242;2023-02-17T02:38:38;100986.51;;;19.51;44.75
70555;BME280;58104;52.744;15.242;2023-02-17T02:41:04;100981.56;;;19.41;44.82
70555;BME280;58104;52.744;15.242;2023-02-17T02:43:25;100982.12;;;19.58;44.75
70555;BME280;58104;52.744;15.242;2023-02-17T02:45:50;100977.74;;;19.41;44.97
70555;BME280;58104;52.744;15.242;2023-02-17T02:48:15;100969.94;;;19.44;44.77
70555;BME280;58104;52.744;15.242;2023-02-17T02:53:21;100954.38;;;19.51;44.71
70555;BME280;58104;52.744;15.242;2023-02-17T02:55:43;100947.63;;;19.34;44.97
70555;BME280;58104;52.744;15.242;2023-02-17T02:58:04;100950.43;;;19.42;44.94
70555;BME280;58104;52.744;15.242;2023-02-17T03:00:25;100947.22;;;19.46;44.83
70555;BME280;58104;52.744;15.242;2023-02-17T03:02:51;100941.52;;;19.48;45.05
70555;BME280;58104;52.744;15.242;2023-02-17T03:05:18;100941.98;;;19.53;45.21
70555;BME280;58104;52.744;15.242;2023-02-17T03:07:41;100935.45;;;19.51;45.28
70555;BME280;58104;52.744;15.242;2023-02-17T03:10:05;100932.40;;;19.49;45.23
70555;BME280;58104;52.744;15.242;2023-02-17T03:12:29;100932.22;;;19.50;45.26
70555;BME280;58104;52.744;15.242;2023-02-17T03:14:57;100926.91;;;19.58;45.31
70555;BME280;58104;52.744;15.242;2023-02-17T03:17:20;100924.61;;;19.44;45.35
70555;BME280;58104;52.744;15.242;2023-02-17T03:19:45;100925.68;;;19.52;45.33
70555;BME280;58104;52.744;15.242;2023-02-17T03:22:15;100925.14;;;19.52;45.35
70555;BME280;58104;52.744;15.242;2023-02-17T03:24:36;100919.46;;;19.52;45.37
70555;BME280;58104;52.744;15.242;2023-02-17T03:27:02;100911.87;;;19.43;45.39
70555;BME280;58104;52.744;15.242;2023-02-17T03:29:27;100903.02;;;19.45;45.48
70555;BME280;58104;52.744;15.242;2023-02-17T03:31:52;100897.47;;;19.43;45.57
70555;BME280;58104;52.744;15.242;2023-02-17T03:34:18;100894.38;;;19.42;45.69
70555;BME280;58104;52.744;15.242;2023-02-17T03:36:43;100890.96;;;19.45;45.57
70555;BME280;58104;52.744;15.242;2023-02-17T03:39:09;100892.53;;;19.48;45.56
70555;BME280;58104;52.744;15.242;2023-02-17T03:41:34;100893.00;;;19.46;45.66
70555;BME280;58104;52.744;15.242;2023-02-17T03:44:00;100895.35;;;19.50;45.70
70555;BME280;58104;52.744;15.242;2023-02-17T03:46:25;100893.69;;;19.47;45.79
70555;BME280;58104;52.744;15.242;2023-02-17T03:48:50;100894.07;;;19.47;45.81
70555;BME280;58104;52.744;15.242;2023-02-17T03:51:17;100887.74;;;19.49;45.80
70555;BME280;58104;52.744;15.242;2023-02-17T03:53:42;100886.68;;;19.47;45.82
70555;BME280;58104;52.744;15.242;2023-02-17T03:56:07;100881.80;;;19.35;45.87
70555;BME280;58104;52.744;15.242;2023-02-17T03:58:32;100880.70;;;19.39;46.01
70555;BME280;58104;52.744;15.242;2023-02-17T04:00:57;100883.68;;;19.45;45.88
70555;BME280;58104;52.744;15.242;2023-02-17T04:03:23;100882.34;;;19.39;45.88
70555;BME280;58104;52.744;15.242;2023-02-17T04:05:48;100874.57;;;19.53;45.70
70555;BME280;58104;52.744;15.242;2023-02-17T04:08:14;100872.91;;;19.48;45.85
70555;BME280;58104;52.744;15.242;2023-02-17T04:10:39;100867.89;;;19.50;45.90
70555;BME280;58104;52.744;15.242;2023-02-17T04:13:04;100854.19;;;19.43;45.78
70555;BME280;58104;52.744;15.242;2023-02-17T04:15:30;100851.11;;;19.41;46.02
70555;BME280;58104;52.744;15.242;2023-02-17T04:17:55;100851.14;;;19.47;45.82
70555;BME280;58104;52.744;15.242;2023-02-17T04:20:21;100847.21;;;19.56;45.77
70555;BME280;58104;52.744;15.242;2023-02-17T04:22:46;100842.42;;;19.54;45.70
70555;BME280;58104;52.744;15.242;2023-02-17T04:25:11;100838.96;;;19.59;45.75
70555;BME280;58104;52.744;15.242;2023-02-17T04:27:37;100843.63;;;19.63;45.96
70555;BME280;58104;52.744;15.242;2023-02-17T04:30:03;100842.10;;;19.55;45.96
70555;BME280;58104;52.744;15.242;2023-02-17T04:32:27;100839.02;;;19.44;45.97
70555;BME280;58104;52.744;15.242;2023-02-17T04:34:53;100838.43;;;19.40;46.12
70555;BME280;58104;52.744;15.242;2023-02-17T04:37:18;100837.90;;;19.43;46.10
70555;BME280;58104;52.744;15.242;2023-02-17T04:39:44;100840.18;;;19.44;46.09
70555;BME280;58104;52.744;15.242;2023-02-17T04:42:09;100838.77;;;19.44;46.06
70555;BME280;58104;52.744;15.242;2023-02-17T04:44:34;100840.25;;;19.45;46.19
70555;BME280;58104;52.744;15.242;2023-02-17T04:47:00;100839.10;;;19.30;46.26
70555;BME280;58104;52.744;15.242;2023-02-17T04:49:26;100831.83;;;19.34;46.23
70555;BME280;58104;52.744;15.242;2023-02-17T04:54:16;100824.76;;;19.34;46.42
70555;BME280;58104;52.744;15.242;2023-02-17T04:56:42;100828.64;;;19.25;46.57
70555;BME280;58104;52.744;15.242;2023-02-17T04:59:07;100823.65;;;19.21;46.89
70555;BME280;58104;52.744;15.242;2023-02-17T05:01:33;100823.92;;;19.22;46.82
70555;BME280;58104;52.744;15.242;2023-02-17T05:03:58;100823.43;;;19.17;46.97
70555;BME280;58104;52.744;15.242;2023-02-17T05:06:23;100820.54;;;19.29;46.77
70555;BME280;58104;52.744;15.242;2023-02-17T05:08:49;100817.22;;;19.25;46.82
70555;BME280;58104;52.744;15.242;2023-02-17T05:11:14;100813.25;;;19.29;46.88
70555;BME280;58104;52.744;15.242;2023-02-17T05:13:40;100811.20;;;19.26;46.76
70555;BME280;58104;52.744;15.242;2023-02-17T05:16:05;100808.62;;;19.27;46.82
70555;BME280;58104;52.744;15.242;2023-02-17T05:18:30;100804.33;;;19.28;46.77
70555;BME280;58104;52.744;15.242;2023-02-17T05:20:55;100802.32;;;19.24;46.85
70555;BME280;58104;52.744;15.242;2023-02-17T05:23:21;100795.62;;;19.17;47.10
70555;BME280;58104;52.744;15.242;2023-02-17T05:25:46;100789.91;;;19.15;47.26
70555;BME280;58104;52.744;15.242;2023-02-17T05:28:11;100787.14;;;19.18;47.08
70555;BME280;58104;52.744;15.242;2023-02-17T05:30:37;100787.29;;;19.20;47.01
70555;BME280;58104;52.744;15.242;2023-02-17T05:33:02;100787.50;;;19.15;47.04
70555;BME280;58104;52.744;15.242;2023-02-17T05:35:27;100788.38;;;19.17;47.15
70555;BME280;58104;52.744;15.242;2023-02-17T05:37:53;100790.87;;;19.15;47.11
70555;BME280;58104;52.744;15.242;2023-02-17T05:40:18;100789.18;;;19.04;47.22
70555;BME280;58104;52.744;15.242;2023-02-17T05:42:44;100788.11;;;19.08;47.30
70555;BME280;58104;52.744;15.242;2023-02-17T05:45:09;100789.49;;;19.10;47.40
70555;BME280;58104;52.744;15.242;2023-02-17T05:47:34;100793.36;;;19.12;47.56
70555;BME280;58104;52.744;15.242;2023-02-17T05:50:00;100790.56;;;19.28;47.44
70555;BME280;58104;52.744;15.242;2023-02-17T05:52:25;100788.14;;;19.29;47.42
70555;BME280;58104;52.744;15.242;2023-02-17T05:54:51;100785.43;;;19.36;47.38
70555;BME280;58104;52.744;15.242;2023-02-17T05:57:16;100782.53;;;19.42;47.38
70555;BME280;58104;52.744;15.242;2023-02-17T05:59:41;100781.94;;;19.46;47.53
70555;BME280;58104;52.744;15.242;2023-02-17T06:02:07;100775.83;;;19.28;47.56
70555;BME280;58104;52.744;15.242;2023-02-17T06:04:32;100770.81;;;19.24;47.65
70555;BME280;58104;52.744;15.242;2023-02-17T06:06:57;100775.61;;;19.24;47.64
70555;BME280;58104;52.744;15.242;2023-02-17T06:09:23;100769.63;;;19.31;47.68
70555;BME280;58104;52.744;15.242;2023-02-17T06:11:48;100768.63;;;19.22;47.82
70555;BME280;58104;52.744;15.242;2023-02-17T06:14:13;100767.19;;;19.23;47.80
70555;BME280;58104;52.744;15.242;2023-02-17T06:16:39;100764.10;;;19.39;47.89
70555;BME280;58104;52.744;15.242;2023-02-17T06:19:04;100763.22;;;19.69;47.60
70555;BME280;58104;52.744;15.242;2023-02-17T06:21:30;100763.82;;;19.65;47.02
70555;BME280;58104;52.744;15.242;2023-02-17T06:23:55;100768.60;;;19.48;47.14
70555;BME280;58104;52.744;15.242;2023-02-17T06:26:20;100764.48;;;19.31;47.48
70555;BME280;58104;52.744;15.242;2023-02-17T06:28:46;100772.94;;;19.29;45.80
70555;BME280;58104;52.744;15.242;2023-02-17T06:31:11;100779.12;;;19.61;45.57
70555;BME280;58104;52.744;15.242;2023-02-17T06:33:36;100774.82;;;19.89;43.46
70555;BME280;58104;52.744;15.242;2023-02-17T06:36:02;100773.11;;;19.82;42.96
70555;BME280;58104;52.744;15.242;2023-02-17T06:38:27;100765.40;;;19.46;43.41
70555;BME280;58104;52.744;15.242;2023-02-17T06:40:53;100765.65;;;19.57;43.29
70555;BME280;58104;52.744;15.242;2023-02-17T06:43:19;100760.56;;;19.42;41.99
70555;BME280;58104;52.744;15.242;2023-02-17T06:45:44;100757.51;;;19.48;42.13
70555;BME280;58104;52.744;15.242;2023-02-17T06:48:10;100752.68;;;19.52;41.50
70555;BME280;58104;52.744;15.242;2023-02-17T06:50:36;100748.31;;;19.17;40.96
70555;BME280;58104;52.744;15.242;2023-02-17T06:53:01;100743.77;;;18.88;40.98
70555;BME280;58104;52.744;15.242;2023-02-17T06:55:26;100743.74;;;19.38;41.49
70555;BME280;58104;52.744;15.242;2023-02-17T06:57:51;100741.23;;;19.24;41.26
70555;BME280;58104;52.744;15.242;2023-02-17T07:00:18;100735.49;;;19.01;39.72
70555;BME280;58104;52.744;15.242;2023-02-17T07:02:42;100735.67;;;18.96;40.47
70555;BME280;58104;52.744;15.242;2023-02-17T07:05:08;100735.72;;;18.89;40.65
70555;BME280;58104;52.744;15.242;2023-02-17T07:07:33;100734.06;;;18.99;41.12
70555;BME280;58104;52.744;15.242;2023-02-17T07:09:58;100733.59;;;18.79;40.80
70555;BME280;58104;52.744;15.242;2023-02-17T07:14:49;100733.51;;;18.72;41.18
70555;BME280;58104;52.744;15.242;2023-02-17T07:17:15;100732.84;;;18.84;41.61
70555;BME280;58104;52.744;15.242;2023-02-17T07:19:41;100731.96;;;19.07;41.27
70555;BME280;58104;52.744;15.242;2023-02-17T07:22:06;100727.44;;;19.17;40.78
70555;BME280;58104;52.744;15.242;2023-02-17T07:24:32;100730.78;;;19.22;40.91
70555;BME280;58104;52.744;15.242;2023-02-17T07:26:57;100721.42;;;19.20;41.22
70555;BME280;58104;52.744;15.242;2023-02-17T07:29:23;100717.48;;;19.26;41.72
70555;BME280;58104;52.744;15.242;2023-02-17T07:31:48;100720.81;;;19.31;41.74
70555;BME280;58104;52.744;15.242;2023-02-17T07:36:39;100733.90;;;19.25;41.82
70555;BME280;58104;52.744;15.242;2023-02-17T07:39:04;100724.68;;;19.31;41.86
70555;BME280;58104;52.744;15.242;2023-02-17T07:41:30;100728.08;;;19.29;41.81
70555;BME280;58104;52.744;15.242;2023-02-17T07:43:56;100726.50;;;19.39;41.66
70555;BME280;58104;52.744;15.242;2023-02-17T07:46:21;100733.86;;;19.31;41.74
70555;BME280;58104;52.744;15.242;2023-02-17T07:48:46;100727.26;;;19.40;41.86
70555;BME280;58104;52.744;15.242;2023-02-17T07:51:14;100723.48;;;19.35;41.76
70555;BME280;58104;52.744;15.242;2023-02-17T07:53:37;100715.78;;;19.42;41.79
70555;BME280;58104;52.744;15.242;2023-02-17T07:56:03;100717.36;;;19.39;41.87
70555;BME280;58104;52.744;15.242;2023-02-17T07:58:29;100717.67;;;19.41;41.99
70555;BME280;58104;52.744;15.242;2023-02-17T08:00:53;100710.71;;;19.38;41.98
70555;BME280;58104;52.744;15.242;2023-02-17T08:03:18;100711.33;;;19.37;42.02
70555;BME280;58104;52.744;15.242;2023-02-17T08:05:44;100710.82;;;19.43;41.92
70555;BME280;58104;52.744;15.242;2023-02-17T08:08:09;100703.13;;;19.49;41.92
70555;BME280;58104;52.744;15.242;2023-02-17T08:10:36;100704.14;;;19.52;41.88
70555;BME280;58104;52.744;15.242;2023-02-17T08:13:00;100702.98;;;19.45;42.03
70555;BME280;58104;52.744;15.242;2023-02-17T08:15:26;100700.64;;;19.48;42.00
70555;BME280;58104;52.744;15.242;2023-02-17T08:17:51;100698.65;;;19.41;42.02
70555;BME280;58104;52.744;15.242;2023-02-17T08:20:17;100699.41;;;19.43;42.01
70555;BME280;58104;52.744;15.242;2023-02-17T08:22:42;100693.42;;;19.45;41.96
70555;BME280;58104;52.744;15.242;2023-02-17T08:25:07;100693.67;;;19.54;41.89
70555;BME280;58104;52.744;15.242;2023-02-17T08:27:33;100698.31;;;19.56;41.87
70555;BME280;58104;52.744;15.242;2023-02-17T08:29:58;100688.96;;;19.56;41.78
70555;BME280;58104;52.744;15.242;2023-02-17T08:32:23;100693.94;;;19.78;41.77
70555;BME280;58104;52.744;15.242;2023-02-17T08:34:49;100694.62;;;19.67;42.01
70555;BME280;58104;52.744;15.242;2023-02-17T08:37:14;100693.38;;;19.77;42.20
70555;BME280;58104;52.744;15.242;2023-02-17T08:39:40;100683.54;;;19.87;42.25
70555;BME280;58104;52.744;15.242;2023-02-17T08:42:05;100689.73;;;19.87;42.44
70555;BME280;58104;52.744;15.242;2023-02-17T08:44:32;100687.67;;;19.91;42.38
70555;BME280;58104;52.744;15.242;2023-02-17T08:46:56;100682.87;;;19.89;42.47
70555;BME280;58104;52.744;15.242;2023-02-17T08:49:24;100685.27;;;20.05;42.34
70555;BME280;58104;52.744;15.242;2023-02-17T08:51:47;100685.14;;;20.21;42.07
70555;BME280;58104;52.744;15.242;2023-02-17T08:54:12;100687.21;;;20.18;42.22
70555;BME280;58104;52.744;15.242;2023-02-17T08:56:38;100668.77;;;20.20;42.31
70555;BME280;58104;52.744;15.242;2023-02-17T08:59:03;100674.40;;;20.26;42.37
70555;BME280;58104;52.744;15.242;2023-02-17T09:01:29;100681.00;;;20.20;42.50
70555;BME280;58104;52.744;15.242;2023-02-17T09:03:55;100658.99;;;20.21;42.68
70555;BME280;58104;52.744;15.242;2023-02-17T09:06:19;100657.21;;;20.30;42.71
70555;BME280;58104;52.744;15.242;2023-02-17T09:08:45;100653.72;;;20.23;42.78
70555;BME280;58104;52.744;15.242;2023-02-17T09:11:10;100641.19;;;20.25;42.96
70555;BME280;58104;52.744;15.242;2023-02-17T09:13:36;100645.04;;;20.22;43.21
70555;BME280;58104;52.744;15.242;2023-02-17T09:16:01;100649.07;;;20.09;43.03
70555;BME280;58104;52.744;15.242;2023-02-17T09:18:26;100643.88;;;20.08;42.89
70555;BME280;58104;52.744;15.242;2023-02-17T09:20:51;100635.77;;;20.06;42.89
70555;BME280;58104;52.744;15.242;2023-02-17T09:23:17;100630.15;;;20.11;42.68
70555;BME280;58104;52.744;15.242;2023-02-17T09:25:43;100631.60;;;20.06;42.73
70555;BME280;58104;52.744;15.242;2023-02-17T09:28:07;100627.59;;;20.12;42.59
70555;BME280;58104;52.744;15.242;2023-02-17T09:30:33;100619.03;;;20.08;42.83
70555;BME280;58104;52.744;15.242;2023-02-17T09:32:58;100618.89;;;20.21;42.48
70555;BME280;58104;52.744;15.242;2023-02-17T09:35:24;100620.63;;;20.15;42.37
70555;BME280;58104;52.744;15.242;2023-02-17T09:37:49;100609.40;;;20.34;42.03
70555;BME280;58104;52.744;15.242;2023-02-17T09:40:17;100605.04;;;20.16;42.77
70555;BME280;58104;52.744;15.242;2023-02-17T09:42:40;100605.06;;;20.23;43.01
70555;BME280;58104;52.744;15.242;2023-02-17T09:45:09;100599.78;;;20.36;42.88
70555;BME280;58104;52.744;15.242;2023-02-17T09:47:36;100593.39;;;20.38;43.14
70555;BME280;58104;52.744;15.242;2023-02-17T09:50:00;100581.06;;;20.32;43.47
70555;BME280;58104;52.744;15.242;2023-02-17T09:52:26;100579.94;;;20.25;43.78
70555;BME280;58104;52.744;15.242;2023-02-17T09:54:52;100581.90;;;20.23;43.93
70555;BME280;58104;52.744;15.242;2023-02-17T09:57:16;100577.37;;;20.37;43.87
70555;BME280;58104;52.744;15.242;2023-02-17T09:59:42;100574.29;;;20.33;43.98
70555;BME280;58104;52.744;15.242;2023-02-17T10:02:06;100569.12;;;20.33;43.91
70555;BME280;58104;52.744;15.242;2023-02-17T10:04:34;100558.93;;;20.41;44.06
70555;BME280;58104;52.744;15.242;2023-02-17T10:06:59;100554.56;;;20.34;44.01
70555;BME280;58104;52.744;15.242;2023-02-17T10:09:22;100548.46;;;20.38;44.21
70555;BME280;58104;52.744;15.242;2023-02-17T10:11:49;100548.33;;;20.42;44.03
70555;BME280;58104;52.744;15.242;2023-02-17T10:14:14;100542.09;;;20.43;44.17
70555;BME280;58104;52.744;15.242;2023-02-17T10:16:40;100540.14;;;20.28;44.54
70555;BME280;58104;52.744;15.242;2023-02-17T10:19:04;100542.77;;;20.36;44.43
70555;BME280;58104;52.744;15.242;2023-02-17T10:21:29;100538.72;;;20.23;44.41
70555;BME280;58104;52.744;15.242;2023-02-17T10:23:51;100529.23;;;20.25;44.19
70555;BME280;58104;52.744;15.242;2023-02-17T10:26:23;100526.95;;;20.33;43.91
70555;BME280;58104;52.744;15.242;2023-02-17T10:28:48;100521.19;;;20.39;43.38
70555;BME280;58104;52.744;15.242;2023-02-17T10:31:12;100519.16;;;20.36;43.28
70555;BME280;58104;52.744;15.242;2023-02-17T10:33:35;100524.00;;;20.25;43.40
70555;BME280;58104;52.744;15.242;2023-02-17T10:36:09;100511.23;;;20.52;42.83
70555;BME280;58104;52.744;15.242;2023-02-17T10:38:35;100506.27;;;20.49;42.66
70555;BME280;58104;52.744;15.242;2023-02-17T10:40:50;100508.69;;;20.54;42.46
70555;BME280;58104;52.744;15.242;2023-02-17T10:43:20;100498.05;;;20.47;42.76
70555;BME280;58104;52.744;15.242;2023-02-17T10:45:42;100488.68;;;20.58;42.48
70555;BME280;58104;52.744;15.242;2023-02-17T10:48:08;100491.17;;;20.34;42.97
70555;BME280;58104;52.744;15.242;2023-02-17T10:50:30;100481.38;;;20.08;42.79
70555;BME280;58104;52.744;15.242;2023-02-17T10:52:56;100484.10;;;19.97;42.43
70555;BME280;58104;52.744;15.242;2023-02-17T10:55:29;100468.79;;;20.10;42.01
70555;BME280;58104;52.744;15.242;2023-02-17T10:57:48;100467.74;;;20.29;42.29
70555;BME280;58104;52.744;15.242;2023-02-17T11:00:15;100475.03;;;20.22;42.87
70555;BME280;58104;52.744;15.242;2023-02-17T11:02:41;100455.05;;;20.22;43.07
70555;BME280;58104;52.744;15.242;2023-02-17T11:05:04;100447.36;;;20.24;43.33
70555;BME280;58104;52.744;15.242;2023-02-17T11:07:32;100441.74;;;20.18;43.67
70555;BME280;58104;52.744;15.242;2023-02-17T11:09:59;100426.87;;;20.31;43.62
70555;BME280;58104;52.744;15.242;2023-02-17T11:12:23;100419.46;;;20.13;44.00
70555;BME280;58104;52.744;15.242;2023-02-17T11:14:46;100410.54;;;20.33;43.70
70555;BME280;58104;52.744;15.242;2023-02-17T11:17:14;100403.51;;;20.21;43.90
70555;BME280;58104;52.744;15.242;2023-02-17T11:19:35;100399.78;;;20.14;44.28
70555;BME280;58104;52.744;15.242;2023-02-17T11:22:05;100395.56;;;20.28;44.53
70555;BME280;58104;52.744;15.242;2023-02-17T11:24:27;100407.41;;;20.33;44.45
70555;BME280;58104;52.744;15.242;2023-02-17T11:26:56;100393.36;;;20.33;44.36
70555;BME280;58104;52.744;15.242;2023-02-17T11:34:12;100352.00;;;20.35;44.23
70555;BME280;58104;52.744;15.242;2023-02-17T11:36:32;100356.48;;;20.36;44.35
70555;BME280;58104;52.744;15.242;2023-02-17T11:38:58;100351.40;;;20.39;44.43
70555;BME280;58104;52.744;15.242;2023-02-17T11:41:23;100337.81;;;20.42;44.34
70555;BME280;58104;52.744;15.242;2023-02-17T11:43:51;100329.65;;;20.40;44.66
70555;BME280;58104;52.744;15.242;2023-02-17T11:46:22;100325.89;;;20.35;44.87
70555;BME280;58104;52.744;15.242;2023-02-17T11:51:09;100302.68;;;20.26;45.20
70555;BME280;58104;52.744;15.242;2023-02-17T11:53:41;100307.38;;;20.39;44.89
70555;BME280;58104;52.744;15.242;2023-02-17T11:56:04;100304.47;;;20.57;44.72
70555;BME280;58104;52.744;15.242;2023-02-17T11:58:29;100295.48;;;20.76;44.28
70555;BME280;58104;52.744;15.242;2023-02-17T12:00:53;100285.96;;;20.77;43.07
70555;BME280;58104;52.744;15.242;2023-02-17T12:03:21;100283.77;;;20.89;42.35
70555;BME280;58104;52.744;15.242;2023-02-17T12:05:48;100281.11;;;20.83;42.05
70555;BME280;58104;52.744;15.242;2023-02-17T12:08:12;100282.18;;;20.85;41.71
70555;BME280;58104;52.744;15.242;2023-02-17T12:10:38;100273.44;;;20.43;42.61
70555;BME280;58104;52.744;15.242;2023-02-17T12:13:04;100273.07;;;20.29;42.32
70555;BME280;58104;52.744;15.242;2023-02-17T12:15:28;100273.88;;;20.73;42.29
70555;BME280;58104;52.744;15.242;2023-02-17T12:17:50;100258.92;;;20.64;43.13
70555;BME280;58104;52.744;15.242;2023-02-17T12:20:23;100267.95;;;20.67;43.12
70555;BME280;58104;52.744;15.242;2023-02-17T12:22:42;100237.57;;;20.54;43.48
70555;BME280;58104;52.744;15.242;2023-02-17T12:27:37;100231.33;;;20.39;41.97
70555;BME280;58104;52.744;15.242;2023-02-17T12:30:02;100222.95;;;20.58;41.49
70555;BME280;58104;52.744;15.242;2023-02-17T12:32:29;100215.20;;;20.40;41.68
70555;BME280;58104;52.744;15.242;2023-02-17T12:34:45;100199.28;;;20.34;41.61
70555;BME280;58104;52.744;15.242;2023-02-17T12:37:15;100203.72;;;20.25;42.83
70555;BME280;58104;52.744;15.242;2023-02-17T12:39:37;100198.47;;;20.22;43.39
70555;BME280;58104;52.744;15.242;2023-02-17T12:42:01;100183.36;;;20.25;43.77
70555;BME280;58104;52.744;15.242;2023-02-17T12:44:27;100181.63;;;20.20;43.90
70555;BME280;58104;52.744;15.242;2023-02-17T12:46:51;100169.48;;;20.28;43.31
70555;BME280;58104;52.744;15.242;2023-02-17T12:49:17;100172.18;;;20.28;43.06
70555;BME280;58104;52.744;15.242;2023-02-17T12:51:42;100163.99;;;20.43;42.76
70555;BME280;58104;52.744;15.242;2023-02-17T12:54:07;100162.44;;;20.39;43.53
70555;BME280;58104;52.744;15.242;2023-02-17T12:56:41;100155.11;;;20.33;43.94
70555;BME280;58104;52.744;15.242;2023-02-17T12:58:57;100150.39;;;20.33;44.08
70555;BME280;58104;52.744;15.242;2023-02-17T13:01:21;100140.47;;;20.45;43.88